Paris, Michigan
Current Conditions -  °F | °C
As of 2:14 AM on Saturday 20 Dec 2014 (Local Time) from KRQB Reporting Station
Clear Clear  
Wind Chill: 16°   Ceiling: Unl
Heat Index: 16°   Visibility: 10mi
Dew Point: 15°   Wind: 0mph
Humidity: 95%   Direction: NA
Pressure: 30.25"   Gusts: NA
Location:  43.77°N, 85.5°W
Report Text: KRQB 200714Z AUTO 00000KT 10SM CLR M09/M09 A3025 RMK AO2 T10871094
Loading
Personal Weather Stations






























Interactive Weather Map New forecast layout! Learn more

10-Day Weather Forecast

Advertisements
Track Severe Weather on mobile